Main page
METAR-TAF:

METAR-TAF

Airports :

Dubuque Regional Airport

Dubuque, Iowa, United States

latitude: 42-23-52N, longitude: 090-42-13W, elevation: 1076 ft

Current weather observation

The report was made 34 minutes ago, at 21:53 UTC
Wind 12 mph from the West
Temperature 16°F
Humidity 52%
Pressure 30.68 in. Hg
Visibility: 10 miles
Clear sky

METAR: KDBQ 202153Z 27010KT 10SM CLR M09/M17 A3068 RMK AO2 SLP416 T10941172

Time: 16:27 (22:27 UTC)

Forecast

The report was made 4 hours and 56 minutes ago, at 17:31 UTC
Forecast valid from 20 at 18 UTC to 21 at 18 UTC
Wind 6 mph from the Northwest
Visibility: 6 miles
Clear sky
From 21 at 0400 UTC
Wind 5 mph from the Southwest
Visibility: 6 miles
Clear sky

TAF: KDBQ 201731Z 2018/2118 32005KT P6SM SKC FM210400 23004KT P6SM SKC

Weather observations and forecasts of more than 4000 airports (METAR and TAF reports).

The available stations are represented by yellow and red dots on the map.

Hover mouse over dot to see the name of the station.

Then click to see weather observations and forecasts.

To change the map : click on the green buttons with a black cross to zoom in, on the green button with a dash to zoom out, or on the green arrows for adjacent maps.


METAR-TAF: